sensor_id;sensor_type;location;lat;lon;timestamp;pressure;altitude;pressure_sealevel;temperature;humidity
13478;BME280;12598;62.382;17.344;2023-04-28T00:00:57;101045.03;;;19.41;26.12
13478;BME280;12598;62.382;17.344;2023-04-28T00:01:59;101046.16;;;19.38;26.03
13478;BME280;12598;62.382;17.344;2023-04-28T00:03:01;101044.19;;;19.40;26.21
13478;BME280;12598;62.382;17.344;2023-04-28T00:04:03;101049.53;;;19.40;25.57
13478;BME280;12598;62.382;17.344;2023-04-28T00:05:06;101039.00;;;19.39;26.09
13478;BME280;12598;62.382;17.344;2023-04-28T00:06:08;101043.50;;;19.38;25.98
13478;BME280;12598;62.382;17.344;2023-04-28T00:07:10;101041.09;;;19.36;25.88
13478;BME280;12598;62.382;17.344;2023-04-28T00:08:12;101049.84;;;19.38;25.98
13478;BME280;12598;62.382;17.344;2023-04-28T00:09:13;101040.13;;;19.37;26.24
13478;BME280;12598;62.382;17.344;2023-04-28T00:10:16;101046.47;;;19.36;25.84
13478;BME280;12598;62.382;17.344;2023-04-28T00:11:18;101042.78;;;19.37;25.77
13478;BME280;12598;62.382;17.344;2023-04-28T00:12:19;101050.00;;;19.36;26.32
13478;BME280;12598;62.382;17.344;2023-04-28T00:13:21;101038.56;;;19.34;25.94
13478;BME280;12598;62.382;17.344;2023-04-28T00:14:23;101045.78;;;19.34;26.14
13478;BME280;12598;62.382;17.344;2023-04-28T00:15:25;101045.09;;;19.32;25.83
13478;BME280;12598;62.382;17.344;2023-04-28T00:16:27;101055.50;;;19.35;26.17
13478;BME280;12598;62.382;17.344;2023-04-28T00:17:29;101045.78;;;19.34;26.28
13478;BME280;12598;62.382;17.344;2023-04-28T00:18:31;101054.66;;;19.34;25.98
13478;BME280;12598;62.382;17.344;2023-04-28T00:19:34;101050.16;;;19.35;26.00
13478;BME280;12598;62.382;17.344;2023-04-28T00:20:36;101056.50;;;19.34;25.95
13478;BME280;12598;62.382;17.344;2023-04-28T00:21:37;101042.00;;;19.27;25.76
13478;BME280;12598;62.382;17.344;2023-04-28T00:22:39;101062.00;;;19.32;26.16
13478;BME280;12598;62.382;17.344;2023-04-28T00:23:41;101040.63;;;19.23;25.93
13478;BME280;12598;62.382;17.344;2023-04-28T00:24:43;101042.59;;;19.21;26.21
13478;BME280;12598;62.382;17.344;2023-04-28T00:25:52;101055.13;;;19.30;26.10
13478;BME280;12598;62.382;17.344;2023-04-28T00:26:55;101058.50;;;19.32;26.24
13478;BME280;12598;62.382;17.344;2023-04-28T00:27:58;101061.16;;;19.32;26.11
13478;BME280;12598;62.382;17.344;2023-04-28T00:28:59;101056.81;;;19.31;26.27
13478;BME280;12598;62.382;17.344;2023-04-28T00:30:01;101063.16;;;19.30;26.07
13478;BME280;12598;62.382;17.344;2023-04-28T00:31:09;101052.44;;;19.30;26.02
13478;BME280;12598;62.382;17.344;2023-04-28T00:32:13;101057.63;;;19.31;26.00
13478;BME280;12598;62.382;17.344;2023-04-28T00:33:14;101056.94;;;19.29;25.76
13478;BME280;12598;62.382;17.344;2023-04-28T00:34:16;101060.47;;;19.30;25.96
13478;BME280;12598;62.382;17.344;2023-04-28T00:35:19;101056.09;;;19.29;25.58
13478;BME280;12598;62.382;17.344;2023-04-28T00:36:20;101056.09;;;19.29;25.76
13478;BME280;12598;62.382;17.344;2023-04-28T00:37:22;101054.41;;;19.28;nan
13478;BME280;12598;62.382;17.344;2023-04-28T00:38:24;101066.97;;;19.27;26.26
13478;BME280;12598;62.382;17.344;2023-04-28T00:39:26;101058.09;;;19.27;25.96
13478;BME280;12598;62.382;17.344;2023-04-28T00:40:34;101073.31;;;19.26;26.58
13478;BME280;12598;62.382;17.344;2023-04-28T00:41:37;101066.84;;;19.29;26.22
13478;BME280;12598;62.382;17.344;2023-04-28T00:42:39;101074.19;;;19.27;26.11
13478;BME280;12598;62.382;17.344;2023-04-28T00:43:47;101065.16;;;19.28;26.44
13478;BME280;12598;62.382;17.344;2023-04-28T00:44:50;101066.13;;;19.27;26.04
13478;BME280;12598;62.382;17.344;2023-04-28T00:45:51;101066.13;;;19.27;25.94
13478;BME280;12598;62.382;17.344;2023-04-28T00:46:53;101072.50;;;19.26;26.24
13478;BME280;12598;62.382;17.344;2023-04-28T00:47:57;101053.75;;;19.16;26.01
13478;BME280;12598;62.382;17.344;2023-04-28T00:48:59;101061.06;;;19.24;26.21
13478;BME280;12598;62.382;17.344;2023-04-28T00:50:02;101072.63;;;19.24;25.96
13478;BME280;12598;62.382;17.344;2023-04-28T00:51:04;101070.81;;;19.25;26.37
13478;BME280;12598;62.382;17.344;2023-04-28T00:52:07;101076.16;;;19.25;25.79
13478;BME280;12598;62.382;17.344;2023-04-28T00:53:12;101072.78;;;19.23;26.25
13478;BME280;12598;62.382;17.344;2023-04-28T00:54:14;101079.84;;;19.24;26.07
13478;BME280;12598;62.382;17.344;2023-04-28T00:55:16;101079.84;;;19.24;26.34
13478;BME280;12598;62.382;17.344;2023-04-28T00:56:18;101073.63;;;19.23;26.37
13478;BME280;12598;62.382;17.344;2023-04-28T00:57:21;101077.28;;;19.22;25.92
13478;BME280;12598;62.382;17.344;2023-04-28T00:58:23;101074.59;;;19.22;26.38
13478;BME280;12598;62.382;17.344;2023-04-28T00:59:25;101083.50;;;19.23;25.99
13478;BME280;12598;62.382;17.344;2023-04-28T01:00:27;101072.09;;;19.21;25.98
13478;BME280;12598;62.382;17.344;2023-04-28T01:01:29;101080.13;;;19.21;26.45
13478;BME280;12598;62.382;17.344;2023-04-28T01:02:34;101075.91;;;19.18;26.25
13478;BME280;12598;62.382;17.344;2023-04-28T01:03:38;101069.72;;;19.18;26.26
13478;BME280;12598;62.382;17.344;2023-04-28T01:04:44;101074.78;;;19.21;26.37
13478;BME280;12598;62.382;17.344;2023-04-28T01:05:48;101078.16;;;19.23;26.02
13478;BME280;12598;62.382;17.344;2023-04-28T01:06:52;101078.16;;;19.23;25.94
13478;BME280;12598;62.382;17.344;2023-04-28T01:07:56;101071.94;;;19.22;26.02
13478;BME280;12598;62.382;17.344;2023-04-28T01:08:58;101070.41;;;19.20;26.18
13478;BME280;12598;62.382;17.344;2023-04-28T01:10:01;101071.41;;;19.19;26.19
13478;BME280;12598;62.382;17.344;2023-04-28T01:11:07;101079.16;;;19.22;26.19
13478;BME280;12598;62.382;17.344;2023-04-28T01:12:39;101075.88;;;19.28;26.14
13478;BME280;12598;62.382;17.344;2023-04-28T01:13:41;101076.16;;;19.25;26.33
13478;BME280;12598;62.382;17.344;2023-04-28T01:14:43;101077.28;;;19.22;26.09
13478;BME280;12598;62.382;17.344;2023-04-28T01:15:46;101071.69;;;19.16;26.10
13478;BME280;12598;62.382;17.344;2023-04-28T01:16:48;101075.78;;;19.20;26.00
13478;BME280;12598;62.382;17.344;2023-04-28T01:17:50;101077.75;;;19.18;26.00
13478;BME280;12598;62.382;17.344;2023-04-28T01:18:52;101085.78;;;19.18;26.34
13478;BME280;12598;62.382;17.344;2023-04-28T01:19:56;101079.56;;;19.17;26.11
13478;BME280;12598;62.382;17.344;2023-04-28T01:20:58;101082.41;;;19.16;26.16
13478;BME280;12598;62.382;17.344;2023-04-28T01:22:01;101082.41;;;19.16;26.03
13478;BME280;12598;62.382;17.344;2023-04-28T01:23:03;101072.22;;;19.10;26.29
13478;BME280;12598;62.382;17.344;2023-04-28T01:24:05;101086.06;;;19.15;26.23
13478;BME280;12598;62.382;17.344;2023-04-28T01:25:07;101069.72;;;19.08;26.21
13478;BME280;12598;62.382;17.344;2023-04-28T01:26:09;101080.69;;;19.15;26.42
13478;BME280;12598;62.382;17.344;2023-04-28T01:27:11;101080.69;;;19.15;25.95
13478;BME280;12598;62.382;17.344;2023-04-28T01:28:15;101083.38;;;19.15;26.51
13478;BME280;12598;62.382;17.344;2023-04-28T01:29:17;101076.47;;;19.12;26.13
13478;BME280;12598;62.382;17.344;2023-04-28T01:30:19;101086.06;;;19.15;26.65
13478;BME280;12598;62.382;17.344;2023-04-28T01:31:21;101041.81;;;18.92;26.02
13478;BME280;12598;62.382;17.344;2023-04-28T01:32:23;101083.38;;;19.15;26.05
13478;BME280;12598;62.382;17.344;2023-04-28T01:33:25;101087.06;;;19.14;26.30
13478;BME280;12598;62.382;17.344;2023-04-28T01:34:27;101090.69;;;19.13;26.26
13478;BME280;12598;62.382;17.344;2023-04-28T01:35:29;101092.41;;;19.14;26.16
13478;BME280;12598;62.382;17.344;2023-04-28T01:36:31;101088.00;;;19.13;26.30
13478;BME280;12598;62.382;17.344;2023-04-28T01:37:36;101054.38;;;18.91;26.13
13478;BME280;12598;62.382;17.344;2023-04-28T01:38:38;101089.72;;;19.14;26.49
13478;BME280;12598;62.382;17.344;2023-04-28T01:39:40;101087.06;;;19.14;26.02
13478;BME280;12598;62.382;17.344;2023-04-28T01:40:41;101082.66;;;19.13;25.95
13478;BME280;12598;62.382;17.344;2023-04-28T01:41:43;101092.41;;;19.14;26.54
13478;BME280;12598;62.382;17.344;2023-04-28T01:42:45;101087.19;;;19.12;26.16
13478;BME280;12598;62.382;17.344;2023-04-28T01:43:47;101094.38;;;19.12;26.18
13478;BME280;12598;62.382;17.344;2023-04-28T01:44:49;101090.69;;;19.13;26.04
13478;BME280;12598;62.382;17.344;2023-04-28T01:45:51;101090.69;;;19.13;26.18
13478;BME280;12598;62.382;17.344;2023-04-28T01:46:53;101089.00;;;19.12;26.10
13478;BME280;12598;62.382;17.344;2023-04-28T01:47:55;101090.69;;;19.13;26.61
13478;BME280;12598;62.382;17.344;2023-04-28T01:48:57;101088.16;;;19.11;26.50
13478;BME280;12598;62.382;17.344;2023-04-28T01:49:59;101090.69;;;19.13;26.42
13478;BME280;12598;62.382;17.344;2023-04-28T01:51:03;101089.00;;;19.12;26.02
13478;BME280;12598;62.382;17.344;2023-04-28T01:52:05;101088.88;;;19.13;26.36
13478;BME280;12598;62.382;17.344;2023-04-28T01:53:07;101073.66;;;19.04;26.32
13478;BME280;12598;62.382;17.344;2023-04-28T01:54:09;101088.16;;;19.11;26.23
13478;BME280;12598;62.382;17.344;2023-04-28T01:55:11;101082.41;;;19.06;26.41
13478;BME280;12598;62.382;17.344;2023-04-28T01:56:13;101085.78;;;19.08;26.39
13478;BME280;12598;62.382;17.344;2023-04-28T01:57:16;101091.84;;;19.10;26.49
13478;BME280;12598;62.382;17.344;2023-04-28T01:58:18;101090.16;;;19.09;26.26
13478;BME280;12598;62.382;17.344;2023-04-28T01:59:21;101086.47;;;19.10;26.34
13478;BME280;12598;62.382;17.344;2023-04-28T02:00:23;101090.16;;;19.09;26.36
13478;BME280;12598;62.382;17.344;2023-04-28T02:01:25;101089.16;;;19.10;26.39
13478;BME280;12598;62.382;17.344;2023-04-28T02:02:27;101090.16;;;19.09;26.49
13478;BME280;12598;62.382;17.344;2023-04-28T02:03:30;101088.31;;;19.10;26.40
13478;BME280;12598;62.382;17.344;2023-04-28T02:04:37;101083.53;;;19.04;26.15
13478;BME280;12598;62.382;17.344;2023-04-28T02:05:39;101091.84;;;19.10;26.56
13478;BME280;12598;62.382;17.344;2023-04-28T02:06:41;101088.47;;;19.08;26.72
13478;BME280;12598;62.382;17.344;2023-04-28T02:07:43;101087.59;;;19.08;26.44
13478;BME280;12598;62.382;17.344;2023-04-28T02:08:45;101092.97;;;19.08;26.20
13478;BME280;12598;62.382;17.344;2023-04-28T02:09:47;101089.47;;;19.07;26.54
13478;BME280;12598;62.382;17.344;2023-04-28T02:10:49;101096.63;;;19.07;26.44
13478;BME280;12598;62.382;17.344;2023-04-28T02:11:51;101096.50;;;19.08;26.35
13478;BME280;12598;62.382;17.344;2023-04-28T02:12:54;101094.81;;;19.07;26.36
13478;BME280;12598;62.382;17.344;2023-04-28T02:13:56;101101.00;;;19.08;26.27
13478;BME280;12598;62.382;17.344;2023-04-28T02:14:58;101099.31;;;19.07;26.17
13478;BME280;12598;62.382;17.344;2023-04-28T02:16:00;101098.31;;;19.08;26.56
13478;BME280;12598;62.382;17.344;2023-04-28T02:17:03;101096.94;;;19.04;26.42
13478;BME280;12598;62.382;17.344;2023-04-28T02:18:07;101099.31;;;19.07;26.37
13478;BME280;12598;62.382;17.344;2023-04-28T02:19:14;101099.19;;;19.08;26.34
13478;BME280;12598;62.382;17.344;2023-04-28T02:20:16;101092.72;;;19.01;26.17
13478;BME280;12598;62.382;17.344;2023-04-28T02:21:18;101097.50;;;19.07;26.25
13478;BME280;12598;62.382;17.344;2023-04-28T02:22:20;101071.72;;;18.87;26.27
13478;BME280;12598;62.382;17.344;2023-04-28T02:23:21;101106.66;;;19.05;26.54
13478;BME280;12598;62.382;17.344;2023-04-28T02:24:23;101106.66;;;19.05;26.43
13478;BME280;12598;62.382;17.344;2023-04-28T02:25:25;101112.03;;;19.05;26.57
13478;BME280;12598;62.382;17.344;2023-04-28T02:26:27;101103.97;;;19.05;26.42
13478;BME280;12598;62.382;17.344;2023-04-28T02:27:29;101106.66;;;19.05;26.42
13478;BME280;12598;62.382;17.344;2023-04-28T02:28:31;101107.66;;;19.04;26.46
13478;BME280;12598;62.382;17.344;2023-04-28T02:29:33;101105.84;;;19.04;26.55
13478;BME280;12598;62.382;17.344;2023-04-28T02:30:35;101110.34;;;19.04;26.25
13478;BME280;12598;62.382;17.344;2023-04-28T02:31:37;101104.97;;;19.04;26.13
13478;BME280;12598;62.382;17.344;2023-04-28T02:32:39;101108.63;;;19.03;26.51
13478;BME280;12598;62.382;17.344;2023-04-28T02:33:41;101104.97;;;19.04;26.59
13478;BME280;12598;62.382;17.344;2023-04-28T02:34:43;101104.97;;;19.04;26.18
13478;BME280;12598;62.382;17.344;2023-04-28T02:35:45;101105.97;;;19.03;26.05
13478;BME280;12598;62.382;17.344;2023-04-28T02:36:47;101110.34;;;19.04;26.51
13478;BME280;12598;62.382;17.344;2023-04-28T02:37:49;101106.81;;;19.03;26.21
13478;BME280;12598;62.382;17.344;2023-04-28T02:38:52;101104.28;;;19.02;26.53
13478;BME280;12598;62.382;17.344;2023-04-28T02:39:54;101105.25;;;19.01;26.43
13478;BME280;12598;62.382;17.344;2023-04-28T02:40:59;101106.94;;;19.02;26.64
13478;BME280;12598;62.382;17.344;2023-04-28T02:42:02;101111.47;;;19.01;26.26
13478;BME280;12598;62.382;17.344;2023-04-28T02:43:04;101112.19;;;19.03;26.56
13478;BME280;12598;62.382;17.344;2023-04-28T02:44:06;101104.28;;;19.02;26.16
13478;BME280;12598;62.382;17.344;2023-04-28T02:45:08;101109.63;;;19.02;26.17
13478;BME280;12598;62.382;17.344;2023-04-28T02:46:10;101099.22;;;18.99;26.43
13478;BME280;12598;62.382;17.344;2023-04-28T02:47:12;101104.28;;;19.02;26.22
13478;BME280;12598;62.382;17.344;2023-04-28T02:48:14;101106.94;;;19.02;26.55
13478;BME280;12598;62.382;17.344;2023-04-28T02:49:16;101107.94;;;19.01;26.17
13478;BME280;12598;62.382;17.344;2023-04-28T02:50:19;101105.25;;;19.01;26.04
13478;BME280;12598;62.382;17.344;2023-04-28T02:51:21;101110.63;;;19.01;26.50
13478;BME280;12598;62.382;17.344;2023-04-28T02:52:22;101108.94;;;19.00;26.19
13478;BME280;12598;62.382;17.344;2023-04-28T02:53:24;101111.63;;;19.00;26.28
13478;BME280;12598;62.382;17.344;2023-04-28T02:54:26;101105.56;;;18.98;26.68
13478;BME280;12598;62.382;17.344;2023-04-28T02:55:29;101108.94;;;19.00;26.22
13478;BME280;12598;62.382;17.344;2023-04-28T02:56:32;101108.94;;;19.00;26.25
13478;BME280;12598;62.382;17.344;2023-04-28T02:57:36;101115.16;;;19.00;26.54
13478;BME280;12598;62.382;17.344;2023-04-28T02:58:38;101115.97;;;19.01;26.07
13478;BME280;12598;62.382;17.344;2023-04-28T02:59:40;101114.28;;;19.00;26.50
13478;BME280;12598;62.382;17.344;2023-04-28T03:00:42;101111.91;;;18.97;26.43
13478;BME280;12598;62.382;17.344;2023-04-28T03:01:44;101108.94;;;19.00;26.57
13478;BME280;12598;62.382;17.344;2023-04-28T03:02:46;101116.97;;;19.00;26.33
13478;BME280;12598;62.382;17.344;2023-04-28T03:03:48;101113.47;;;18.99;26.51
13478;BME280;12598;62.382;17.344;2023-04-28T03:04:50;101111.78;;;18.98;26.22
13478;BME280;12598;62.382;17.344;2023-04-28T03:05:52;101114.47;;;18.98;26.24
13478;BME280;12598;62.382;17.344;2023-04-28T03:06:57;101109.94;;;18.99;26.44
13478;BME280;12598;62.382;17.344;2023-04-28T03:07:59;101119.81;;;18.98;26.23
13478;BME280;12598;62.382;17.344;2023-04-28T03:09:01;101114.59;;;18.97;26.59
13478;BME280;12598;62.382;17.344;2023-04-28T03:10:03;101118.13;;;18.97;26.27
13478;BME280;12598;62.382;17.344;2023-04-28T03:11:05;101114.88;;;18.94;26.24
13478;BME280;12598;62.382;17.344;2023-04-28T03:12:07;101123.50;;;18.97;26.37
13478;BME280;12598;62.382;17.344;2023-04-28T03:13:09;101123.50;;;18.97;26.19
13478;BME280;12598;62.382;17.344;2023-04-28T03:14:11;101122.63;;;18.97;25.92
13478;BME280;12598;62.382;17.344;2023-04-28T03:15:13;101118.13;;;18.97;26.59
13478;BME280;12598;62.382;17.344;2023-04-28T03:16:15;101119.94;;;18.97;26.62
13478;BME280;12598;62.382;17.344;2023-04-28T03:17:17;101123.50;;;18.97;26.31
13478;BME280;12598;62.382;17.344;2023-04-28T03:18:20;101112.78;;;18.88;26.47
13478;BME280;12598;62.382;17.344;2023-04-28T03:19:23;101124.47;;;18.96;26.68
13478;BME280;12598;62.382;17.344;2023-04-28T03:20:26;101123.63;;;18.96;26.12
13478;BME280;12598;62.382;17.344;2023-04-28T03:21:29;101125.31;;;18.97;26.61
13478;BME280;12598;62.382;17.344;2023-04-28T03:22:31;101125.31;;;18.97;26.24
13478;BME280;12598;62.382;17.344;2023-04-28T03:23:33;101131.66;;;18.96;26.55
13478;BME280;12598;62.382;17.344;2023-04-28T03:24:35;101135.19;;;18.96;26.40
13478;BME280;12598;62.382;17.344;2023-04-28T03:25:38;101125.47;;;18.95;26.17
13478;BME280;12598;62.382;17.344;2023-04-28T03:26:40;101127.28;;;18.95;26.65
13478;BME280;12598;62.382;17.344;2023-04-28T03:27:42;101126.28;;;18.96;26.12
13478;BME280;12598;62.382;17.344;2023-04-28T03:28:45;101125.59;;;18.94;26.57
13478;BME280;12598;62.382;17.344;2023-04-28T03:29:48;101128.97;;;18.96;26.91
13478;BME280;12598;62.382;17.344;2023-04-28T03:30:50;101133.50;;;18.95;26.66
13478;BME280;12598;62.382;17.344;2023-04-28T03:31:53;101114.59;;;18.87;26.39
13478;BME280;12598;62.382;17.344;2023-04-28T03:32:55;101129.13;;;18.94;26.90
13478;BME280;12598;62.382;17.344;2023-04-28T03:33:56;101098.69;;;18.76;26.49
13478;BME280;12598;62.382;17.344;2023-04-28T03:35:00;101129.25;;;18.93;26.74
13478;BME280;12598;62.382;17.344;2023-04-28T03:36:02;101125.59;;;18.94;26.43
13478;BME280;12598;62.382;17.344;2023-04-28T03:37:04;101101.94;;;18.80;26.57
13478;BME280;12598;62.382;17.344;2023-04-28T03:38:06;101123.91;;;18.93;26.25
13478;BME280;12598;62.382;17.344;2023-04-28T03:39:08;101129.25;;;18.93;26.45
13478;BME280;12598;62.382;17.344;2023-04-28T03:40:10;101126.59;;;18.93;26.20
13478;BME280;12598;62.382;17.344;2023-04-28T03:41:50;101130.09;;;19.03;26.00
13478;BME280;12598;62.382;17.344;2023-04-28T03:43:18;101119.06;;;19.06;26.48
13478;BME280;12598;62.382;17.344;2023-04-28T03:44:43;101124.44;;;19.06;26.16
13478;BME280;12598;62.382;17.344;2023-04-28T03:45:46;101128.41;;;19.02;26.49
13478;BME280;12598;62.382;17.344;2023-04-28T03:46:48;101121.63;;;18.98;26.58
13478;BME280;12598;62.382;17.344;2023-04-28T03:47:51;101123.63;;;18.96;26.68
13478;BME280;12598;62.382;17.344;2023-04-28T03:48:53;101127.28;;;18.95;26.46
13478;BME280;12598;62.382;17.344;2023-04-28T03:49:55;101121.22;;;18.93;26.31
13478;BME280;12598;62.382;17.344;2023-04-28T03:50:59;101120.25;;;18.94;26.52
13478;BME280;12598;62.382;17.344;2023-04-28T03:52:01;101136.31;;;18.94;26.64
13478;BME280;12598;62.382;17.344;2023-04-28T03:53:05;101127.28;;;18.95;26.71
13478;BME280;12598;62.382;17.344;2023-04-28T03:54:07;101126.59;;;18.93;26.69
13478;BME280;12598;62.382;17.344;2023-04-28T03:55:09;101121.22;;;18.93;26.67
13478;BME280;12598;62.382;17.344;2023-04-28T03:56:11;101128.41;;;18.92;26.74
13478;BME280;12598;62.382;17.344;2023-04-28T03:57:13;101123.03;;;18.92;26.39
13478;BME280;12598;62.382;17.344;2023-04-28T03:58:15;101118.53;;;18.93;26.40
13478;BME280;12598;62.382;17.344;2023-04-28T03:59:18;101120.25;;;18.94;26.59
13478;BME280;12598;62.382;17.344;2023-04-28T04:00:20;101122.91;;;18.94;26.67
13478;BME280;12598;62.382;17.344;2023-04-28T04:01:25;101103.34;;;18.84;26.60
13478;BME280;12598;62.382;17.344;2023-04-28T04:02:28;101119.25;;;18.95;26.68
13478;BME280;12598;62.382;17.344;2023-04-28T04:03:30;101096.28;;;18.83;26.34
13478;BME280;12598;62.382;17.344;2023-04-28T04:04:33;101116.28;;;18.88;26.58
13478;BME280;12598;62.382;17.344;2023-04-28T04:05:35;101121.22;;;18.93;26.77
13478;BME280;12598;62.382;17.344;2023-04-28T04:06:37;101126.47;;;18.94;26.39
13478;BME280;12598;62.382;17.344;2023-04-28T04:07:39;101117.56;;;18.94;26.58
13478;BME280;12598;62.382;17.344;2023-04-28T04:08:42;101111.91;;;18.87;26.38
13478;BME280;12598;62.382;17.344;2023-04-28T04:09:44;101127.28;;;18.95;26.48
13478;BME280;12598;62.382;17.344;2023-04-28T04:10:46;101128.28;;;18.94;26.66
13478;BME280;12598;62.382;17.344;2023-04-28T04:11:48;101123.91;;;18.93;26.63
13478;BME280;12598;62.382;17.344;2023-04-28T04:12:50;101120.66;;;18.89;26.46
13478;BME280;12598;62.382;17.344;2023-04-28T04:13:52;101122.91;;;18.94;26.72
13478;BME280;12598;62.382;17.344;2023-04-28T04:14:55;101124.78;;;18.93;26.28
13478;BME280;12598;62.382;17.344;2023-04-28T04:15:58;101124.78;;;18.93;26.79
13478;BME280;12598;62.382;17.344;2023-04-28T04:17:01;101123.03;;;18.92;26.47
13478;BME280;12598;62.382;17.344;2023-04-28T04:18:03;101126.59;;;18.93;26.76
13478;BME280;12598;62.382;17.344;2023-04-28T04:19:19;101132.34;;;18.98;26.20
13478;BME280;12598;62.382;17.344;2023-04-28T04:20:23;101130.66;;;18.97;26.18
13478;BME280;12598;62.382;17.344;2023-04-28T04:21:25;101129.97;;;18.95;26.33
13478;BME280;12598;62.382;17.344;2023-04-28T04:22:29;101129.13;;;18.94;26.36
13478;BME280;12598;62.382;17.344;2023-04-28T04:23:31;101128.16;;;18.95;26.81
13478;BME280;12598;62.382;17.344;2023-04-28T04:24:33;101126.28;;;18.96;26.32
13478;BME280;12598;62.382;17.344;2023-04-28T04:25:35;101125.47;;;18.95;26.55
13478;BME280;12598;62.382;17.344;2023-04-28T04:26:37;101135.31;;;18.95;26.60
13478;BME280;12598;62.382;17.344;2023-04-28T04:27:55;101129.53;;;18.99;26.49
13478;BME280;12598;62.382;17.344;2023-04-28T04:28:57;101133.22;;;18.98;26.72
13478;BME280;12598;62.382;17.344;2023-04-28T04:29:59;101132.81;;;18.93;26.27
13478;BME280;12598;62.382;17.344;2023-04-28T04:31:01;101128.97;;;18.96;26.98
13478;BME280;12598;62.382;17.344;2023-04-28T04:32:04;101106.16;;;18.82;26.81
13478;BME280;12598;62.382;17.344;2023-04-28T04:33:06;101133.34;;;18.97;26.69
13478;BME280;12598;62.382;17.344;2023-04-28T04:34:09;101123.63;;;18.96;26.75
13478;BME280;12598;62.382;17.344;2023-04-28T04:35:11;101129.97;;;18.95;26.69
13478;BME280;12598;62.382;17.344;2023-04-28T04:36:13;101122.78;;;18.95;26.41
13478;BME280;12598;62.382;17.344;2023-04-28T04:37:15;101134.34;;;18.96;26.63
13478;BME280;12598;62.382;17.344;2023-04-28T04:38:24;101130.81;;;18.95;nan
13478;BME280;12598;62.382;17.344;2023-04-28T04:39:26;101135.19;;;18.96;26.49
13478;BME280;12598;62.382;17.344;2023-04-28T04:40:28;101131.66;;;18.96;26.27
13478;BME280;12598;62.382;17.344;2023-04-28T04:41:30;101142.38;;;18.96;26.39
13478;BME280;12598;62.382;17.344;2023-04-28T04:42:48;101141.09;;;19.00;26.60
13478;BME280;12598;62.382;17.344;2023-04-28T04:43:52;101142.09;;;18.99;26.77
13478;BME280;12598;62.382;17.344;2023-04-28T04:45:00;101144.63;;;19.00;26.32
13478;BME280;12598;62.382;17.344;2023-04-28T04:46:04;101134.03;;;18.99;26.28
13478;BME280;12598;62.382;17.344;2023-04-28T04:47:06;101131.66;;;18.96;26.43
13478;BME280;12598;62.382;17.344;2023-04-28T04:48:10;101134.34;;;18.96;26.69
13478;BME280;12598;62.382;17.344;2023-04-28T04:49:12;101128.28;;;18.94;26.69
13478;BME280;12598;62.382;17.344;2023-04-28T04:50:14;101133.63;;;18.94;26.49
13478;BME280;12598;62.382;17.344;2023-04-28T04:51:16;101123.34;;;18.89;26.65
13478;BME280;12598;62.382;17.344;2023-04-28T04:52:18;101130.97;;;18.94;26.48
13478;BME280;12598;62.382;17.344;2023-04-28T04:53:20;101129.25;;;18.93;26.34
13478;BME280;12598;62.382;17.344;2023-04-28T04:54:22;101135.63;;;18.92;26.81
13478;BME280;12598;62.382;17.344;2023-04-28T04:55:24;101129.25;;;18.93;26.65
13478;BME280;12598;62.382;17.344;2023-04-28T04:56:26;101134.63;;;18.93;26.46
13478;BME280;12598;62.382;17.344;2023-04-28T04:57:28;101133.75;;;18.92;26.82
13478;BME280;12598;62.382;17.344;2023-04-28T04:58:42;101141.69;;;18.94;26.39
13478;BME280;12598;62.382;17.344;2023-04-28T05:00:08;101140.09;;;19.01;26.71
13478;BME280;12598;62.382;17.344;2023-04-28T05:01:11;101137.72;;;18.98;26.38
13478;BME280;12598;62.382;17.344;2023-04-28T05:02:13;101101.94;;;18.70;26.36
13478;BME280;12598;62.382;17.344;2023-04-28T05:03:14;101149.72;;;18.94;26.84
13478;BME280;12598;62.382;17.344;2023-04-28T05:04:17;101145.34;;;18.93;26.66
13478;BME280;12598;62.382;17.344;2023-04-28T05:05:19;101144.47;;;18.92;26.53
13478;BME280;12598;62.382;17.344;2023-04-28T05:06:43;101145.91;;;18.96;26.52
13478;BME280;12598;62.382;17.344;2023-04-28T05:07:45;101141.53;;;18.95;26.43
13478;BME280;12598;62.382;17.344;2023-04-28T05:08:47;101148.72;;;18.95;26.46
13478;BME280;12598;62.382;17.344;2023-04-28T05:09:50;101151.41;;;18.95;26.80
13478;BME280;12598;62.382;17.344;2023-04-28T05:10:52;101151.41;;;18.95;26.78
13478;BME280;12598;62.382;17.344;2023-04-28T05:11:54;101134.06;;;18.89;26.82
13478;BME280;12598;62.382;17.344;2023-04-28T05:12:56;101146.75;;;18.97;26.65
13478;BME280;12598;62.382;17.344;2023-04-28T05:13:58;101146.47;;;19.00;26.53
13478;BME280;12598;62.382;17.344;2023-04-28T05:15:00;101151.69;;;19.01;26.85
13478;BME280;12598;62.382;17.344;2023-04-28T05:16:02;101142.50;;;19.04;26.34
13478;BME280;12598;62.382;17.344;2023-04-28T05:17:31;101146.97;;;19.13;26.31
13478;BME280;12598;62.382;17.344;2023-04-28T05:18:33;101144.31;;;19.13;26.22
13478;BME280;12598;62.382;17.344;2023-04-28T05:19:35;101134.31;;;19.15;26.15
13478;BME280;12598;62.382;17.344;2023-04-28T05:20:37;101131.34;;;19.08;26.33
13478;BME280;12598;62.382;17.344;2023-04-28T05:21:39;101145.47;;;19.20;26.26
13478;BME280;12598;62.382;17.344;2023-04-28T05:22:41;101141.09;;;19.19;26.46
13478;BME280;12598;62.382;17.344;2023-04-28T05:23:43;101144.03;;;19.25;26.16
13478;BME280;12598;62.382;17.344;2023-04-28T05:24:45;101130.91;;;19.22;26.29
13478;BME280;12598;62.382;17.344;2023-04-28T05:25:47;101141.75;;;19.30;26.20
13478;BME280;12598;62.382;17.344;2023-04-28T05:26:50;101137.94;;;19.33;26.46